createdAt,value
2023-08-23T00:01:17.250Z,14.75
2023-08-23T00:03:53.200Z,16.08
2023-08-23T00:06:20.709Z,15.35
2023-08-23T00:08:48.291Z,15.80
2023-08-23T00:11:15.822Z,16.67
2023-08-23T00:13:43.440Z,15.82
2023-08-23T00:16:10.810Z,14.27
2023-08-23T00:18:39.859Z,16.70
2023-08-23T00:21:07.423Z,17.50
2023-08-23T00:23:35.351Z,14.57
2023-08-23T00:26:02.588Z,14.40
2023-08-23T00:28:30.223Z,14.07
2023-08-23T00:30:57.714Z,13.98
2023-08-23T00:33:26.864Z,13.70
2023-08-23T00:35:55.542Z,13.05
2023-08-23T00:38:23.941Z,12.65
2023-08-23T00:40:51.406Z,15.30
2023-08-23T00:43:19.837Z,14.07
2023-08-23T00:45:48.217Z,14.07
2023-08-23T00:48:15.948Z,13.90
2023-08-23T00:50:46.643Z,12.38
2023-08-23T00:53:15.446Z,13.43
2023-08-23T00:55:42.953Z,14.57
2023-08-23T00:58:10.900Z,14.82
2023-08-23T01:00:40.726Z,13.75
2023-08-23T01:03:10.938Z,14.75
2023-08-23T01:05:50.332Z,14.20
2023-08-23T01:08:59.676Z,15.80
2023-08-23T01:11:46.438Z,14.48
2023-08-23T01:14:46.142Z,16.02
2023-08-23T01:17:17.113Z,12.65
2023-08-23T01:19:49.059Z,13.35
2023-08-23T01:22:25.400Z,13.38
2023-08-23T01:24:53.531Z,14.38
2023-08-23T01:27:21.508Z,14.85
2023-08-23T01:29:49.538Z,15.18
2023-08-23T01:32:45.111Z,14.30
2023-08-23T01:35:20.798Z,14.57
2023-08-23T01:37:52.341Z,20.60
2023-08-23T01:40:20.510Z,15.23
2023-08-23T01:42:49.348Z,15.27
2023-08-23T01:45:20.383Z,15.48
2023-08-23T01:47:49.233Z,15.50
2023-08-23T01:50:17.084Z,14.50
2023-08-23T01:52:44.306Z,16.10
2023-08-23T01:55:12.471Z,15.45
2023-08-23T01:57:41.474Z,14.90
2023-08-23T02:00:10.270Z,15.82
2023-08-23T02:02:41.985Z,14.20
2023-08-23T02:05:09.899Z,14.40
2023-08-23T02:07:37.601Z,15.27
2023-08-23T02:10:05.831Z,15.85
2023-08-23T02:12:33.004Z,16.33
2023-08-23T02:15:00.720Z,16.40
2023-08-23T02:17:28.900Z,15.10
2023-08-23T02:19:58.730Z,15.73
2023-08-23T02:22:26.032Z,16.48
2023-08-23T02:24:53.902Z,16.63
2023-08-23T02:27:21.149Z,16.10
2023-08-23T02:29:48.746Z,16.13
2023-08-23T02:32:16.179Z,18.00
2023-08-23T02:34:43.706Z,17.25
2023-08-23T02:37:10.948Z,16.85
2023-08-23T02:39:38.738Z,17.02
2023-08-23T02:42:06.726Z,16.77
2023-08-23T02:44:34.593Z,17.25
2023-08-23T02:47:01.926Z,15.77
2023-08-23T02:49:29.565Z,21.30
2023-08-23T02:51:56.974Z,17.10
2023-08-23T02:54:24.571Z,15.38
2023-08-23T02:56:51.929Z,16.92
2023-08-23T02:59:19.583Z,16.80
2023-08-23T03:01:48.254Z,15.60
2023-08-23T03:04:16.047Z,16.17
2023-08-23T03:06:44.791Z,15.60
2023-08-23T03:09:12.434Z,17.10
2023-08-23T03:11:39.755Z,16.63
2023-08-23T03:14:09.632Z,19.05
2023-08-23T03:16:37.077Z,17.65
2023-08-23T03:19:04.639Z,16.27
2023-08-23T03:21:32.227Z,17.40
2023-08-23T03:24:00.166Z,17.17
2023-08-23T03:26:28.973Z,17.05
2023-08-23T03:28:59.374Z,17.23
2023-08-23T03:31:27.891Z,15.80
2023-08-23T03:33:55.738Z,17.38
2023-08-23T03:36:23.675Z,16.70
2023-08-23T03:38:51.302Z,15.88
2023-08-23T03:41:18.635Z,16.73
2023-08-23T03:43:46.841Z,16.38
2023-08-23T03:46:15.011Z,17.67
2023-08-23T03:48:42.804Z,17.30
2023-08-23T03:51:10.114Z,16.55
2023-08-23T03:53:37.854Z,16.35
2023-08-23T03:56:05.641Z,16.27
2023-08-23T03:58:33.294Z,17.00
2023-08-23T04:01:00.544Z,17.45
2023-08-23T04:03:28.436Z,17.67
2023-08-23T04:05:55.979Z,18.42
2023-08-23T04:08:23.872Z,18.17
2023-08-23T04:10:51.715Z,17.65
2023-08-23T04:13:19.435Z,18.15
2023-08-23T04:15:47.104Z,17.55
2023-08-23T04:18:15.328Z,19.55
2023-08-23T04:20:42.836Z,18.83
2023-08-23T04:23:10.811Z,18.88
2023-08-23T04:25:38.301Z,19.38
2023-08-23T04:28:06.450Z,20.15
2023-08-23T04:30:33.806Z,19.50
2023-08-23T04:33:02.620Z,19.92
2023-08-23T04:35:30.035Z,20.52
2023-08-23T04:37:58.676Z,33.05
2023-08-23T04:40:27.016Z,19.10
2023-08-23T04:42:57.118Z,22.08
2023-08-23T04:45:27.713Z,20.98
2023-08-23T04:47:56.303Z,30.67
2023-08-23T04:50:23.699Z,26.45
2023-08-23T04:52:52.953Z,39.53
2023-08-23T04:55:21.063Z,37.40
2023-08-23T04:57:48.973Z,47.92
2023-08-23T05:00:17.016Z,21.48
2023-08-23T05:02:44.889Z,20.67
2023-08-23T05:05:13.501Z,21.70
2023-08-23T05:07:41.188Z,21.77
2023-08-23T05:10:09.402Z,22.65
2023-08-23T05:12:37.018Z,31.75
2023-08-23T05:15:05.666Z,22.83
2023-08-23T05:17:33.332Z,23.70
2023-08-23T05:20:02.015Z,42.20
2023-08-23T05:22:32.226Z,185.55
2023-08-23T05:24:59.511Z,90.82
2023-08-23T05:27:27.258Z,53.88
2023-08-23T05:29:55.385Z,37.63
2023-08-23T05:32:23.722Z,28.17
2023-08-23T05:34:51.993Z,40.55
2023-08-23T05:37:20.865Z,24.30
2023-08-23T05:39:51.644Z,26.20
2023-08-23T05:42:19.970Z,21.30
2023-08-23T05:44:47.741Z,21.95
2023-08-23T05:47:15.646Z,21.77
2023-08-23T05:49:44.063Z,20.25
2023-08-23T05:52:14.623Z,21.52
2023-08-23T05:54:42.844Z,22.08
2023-08-23T05:57:10.493Z,25.52
2023-08-23T05:59:37.763Z,22.55
2023-08-23T06:02:05.643Z,19.15
2023-08-23T06:04:33.606Z,19.45
2023-08-23T06:07:01.345Z,18.77
2023-08-23T06:09:28.638Z,19.08
2023-08-23T06:11:58.339Z,23.17
2023-08-23T06:14:28.743Z,24.15
2023-08-23T06:16:57.182Z,23.20
2023-08-23T06:19:24.615Z,21.67
2023-08-23T06:21:53.515Z,22.00
2023-08-23T06:24:22.078Z,22.80
2023-08-23T06:26:52.045Z,24.35
2023-08-23T06:29:21.001Z,20.17
2023-08-23T06:31:48.674Z,23.27
2023-08-23T06:34:15.980Z,19.38
2023-08-23T06:36:44.752Z,34.92
2023-08-23T06:39:23.895Z,17.63
2023-08-23T06:42:02.555Z,18.67
2023-08-23T06:44:31.302Z,17.70
2023-08-23T06:46:58.956Z,40.33
2023-08-23T06:49:26.512Z,16.77
2023-08-23T06:51:55.159Z,19.40
2023-08-23T06:54:22.515Z,18.40
2023-08-23T06:56:50.199Z,17.45
2023-08-23T06:59:18.181Z,17.52
2023-08-23T07:01:47.876Z,19.83
2023-08-23T07:04:16.367Z,65.75
2023-08-23T07:06:44.231Z,18.65
2023-08-23T07:09:11.905Z,24.00
2023-08-23T07:11:39.988Z,19.23
2023-08-23T07:14:08.177Z,26.92
2023-08-23T07:16:36.276Z,34.03
2023-08-23T07:19:04.740Z,18.83
2023-08-23T07:21:34.655Z,23.20
2023-08-23T07:24:04.065Z,26.02
2023-08-23T07:26:35.213Z,19.02
2023-08-23T07:29:03.544Z,25.95
2023-08-23T07:31:31.156Z,33.95
2023-08-23T07:33:58.355Z,27.45
2023-08-23T07:36:26.691Z,19.48
2023-08-23T07:38:55.230Z,23.63
2023-08-23T07:41:22.785Z,18.75
2023-08-23T07:43:50.197Z,20.55
2023-08-23T07:46:17.962Z,31.48
2023-08-23T07:48:45.365Z,19.48
2023-08-23T07:51:13.061Z,27.27
2023-08-23T07:53:43.168Z,31.42
2023-08-23T07:56:15.625Z,21.73
2023-08-23T07:58:44.377Z,20.13
2023-08-23T08:01:12.057Z,36.65
2023-08-23T08:03:40.702Z,45.70
2023-08-23T08:06:08.303Z,31.30
2023-08-23T08:08:40.586Z,67.35
2023-08-23T08:11:08.368Z,18.05
2023-08-23T08:13:35.589Z,16.92
2023-08-23T08:16:14.188Z,15.57
2023-08-23T08:18:44.338Z,16.15
2023-08-23T08:21:12.302Z,15.80
2023-08-23T08:23:39.750Z,16.40
2023-08-23T08:26:09.023Z,16.23
2023-08-23T08:28:36.422Z,14.95
2023-08-23T08:31:03.976Z,17.10
2023-08-23T08:33:31.373Z,22.52
2023-08-23T08:35:58.912Z,15.25
2023-08-23T08:38:26.140Z,16.23
2023-08-23T08:40:55.958Z,14.85
2023-08-23T08:43:24.348Z,23.45
2023-08-23T08:45:52.096Z,13.20
2023-08-23T08:48:19.428Z,32.30
2023-08-23T08:50:47.920Z,12.65
2023-08-23T08:53:17.345Z,10.23
2023-08-23T08:55:48.822Z,10.48
2023-08-23T08:58:21.152Z,11.32
2023-08-23T09:00:50.400Z,10.33
2023-08-23T09:03:21.604Z,10.77
2023-08-23T09:05:50.000Z,11.13
2023-08-23T09:08:17.991Z,10.43
2023-08-23T09:10:45.630Z,22.83
2023-08-23T09:13:13.202Z,8.43
2023-08-23T09:15:40.932Z,8.55
2023-08-23T09:18:08.268Z,11.68
2023-08-23T09:20:37.049Z,10.45
2023-08-23T09:23:04.814Z,11.30
2023-08-23T09:25:32.386Z,12.27
2023-08-23T09:28:01.002Z,11.70
2023-08-23T09:30:28.627Z,12.15
2023-08-23T09:32:58.670Z,10.05
2023-08-23T09:35:27.237Z,10.90
2023-08-23T09:37:55.274Z,12.60
2023-08-23T09:40:30.297Z,10.93
2023-08-23T09:42:59.895Z,10.82
2023-08-23T09:45:28.931Z,9.73
2023-08-23T09:47:59.798Z,9.75
2023-08-23T09:50:28.457Z,10.73
2023-08-23T09:53:02.725Z,10.68
2023-08-23T09:55:31.628Z,12.93
2023-08-23T09:58:00.080Z,10.15
2023-08-23T10:00:28.679Z,10.10
2023-08-23T10:03:00.167Z,9.38
2023-08-23T10:05:29.016Z,10.00
2023-08-23T10:07:58.515Z,10.20
2023-08-23T10:10:27.609Z,8.57
2023-08-23T10:13:00.716Z,8.25
2023-08-23T10:18:01.338Z,8.68
2023-08-23T10:20:29.779Z,8.48
2023-08-23T10:22:57.841Z,7.47
2023-08-23T10:25:25.514Z,8.02
2023-08-23T10:27:57.541Z,10.93
2023-08-23T10:30:30.004Z,14.80
2023-08-23T10:33:10.022Z,10.23
2023-08-23T10:35:38.820Z,9.27
2023-08-23T10:38:07.267Z,10.27
2023-08-23T10:40:36.649Z,13.55
2023-08-23T10:43:11.074Z,33.90
2023-08-23T10:45:59.098Z,22.83
2023-08-23T10:48:26.492Z,8.73
2023-08-23T10:50:57.053Z,11.43
2023-08-23T10:53:28.510Z,9.07
2023-08-23T10:56:01.199Z,44.90
2023-08-23T10:58:28.581Z,6.93
2023-08-23T11:00:57.028Z,7.13
2023-08-23T11:03:25.694Z,6.82
2023-08-23T11:05:53.977Z,8.52
2023-08-23T11:08:23.298Z,7.45
2023-08-23T11:10:51.524Z,6.70
2023-08-23T11:13:18.853Z,13.60
2023-08-23T11:15:46.543Z,7.65
2023-08-23T11:18:14.797Z,27.95
2023-08-23T11:20:43.106Z,42.17
2023-08-23T11:23:11.159Z,13.20
2023-08-23T11:25:39.255Z,13.90
2023-08-23T11:28:07.392Z,39.88
2023-08-23T11:30:35.218Z,11.10
2023-08-23T11:33:04.543Z,9.25
2023-08-23T11:35:32.219Z,16.15
2023-08-23T11:37:59.477Z,20.67
2023-08-23T11:40:27.186Z,43.13
2023-08-23T11:43:11.997Z,38.17
2023-08-23T11:45:44.676Z,15.55
2023-08-23T11:48:12.259Z,8.05
2023-08-23T11:50:40.302Z,8.88
2023-08-23T11:53:10.333Z,7.53
2023-08-23T11:55:38.398Z,8.18
2023-08-23T11:58:07.726Z,8.43
2023-08-23T12:00:35.354Z,8.13
2023-08-23T12:03:03.787Z,9.05
2023-08-23T12:05:31.593Z,9.20
2023-08-23T12:07:59.200Z,8.80
2023-08-23T12:10:27.294Z,7.88
2023-08-23T12:12:55.535Z,9.02
2023-08-23T12:15:22.958Z,8.43
2023-08-23T12:17:50.906Z,8.43
2023-08-23T12:20:18.821Z,8.63
2023-08-23T12:22:47.577Z,8.48
2023-08-23T12:25:15.542Z,8.32
2023-08-23T12:27:44.140Z,24.52
2023-08-23T12:30:11.490Z,7.38
2023-08-23T12:32:39.096Z,7.65
2023-08-23T12:35:07.326Z,9.68
2023-08-23T12:37:34.882Z,8.30
2023-08-23T12:40:02.137Z,17.95
2023-08-23T12:42:34.617Z,7.87
2023-08-23T12:45:03.934Z,7.60
2023-08-23T12:47:31.517Z,7.60
2023-08-23T12:49:58.954Z,9.15
2023-08-23T12:52:26.814Z,8.82
2023-08-23T12:54:54.161Z,7.30
2023-08-23T12:57:21.796Z,16.25
2023-08-23T12:59:49.107Z,6.57
2023-08-23T13:02:16.802Z,6.20
2023-08-23T13:04:44.556Z,6.72
2023-08-23T13:07:12.193Z,7.22
2023-08-23T13:09:39.371Z,7.10
2023-08-23T13:12:07.322Z,7.10
2023-08-23T13:14:34.607Z,6.45
2023-08-23T13:17:02.197Z,8.70
2023-08-23T13:19:31.142Z,9.43
2023-08-23T13:22:01.490Z,6.95
2023-08-23T13:24:28.983Z,6.80
2023-08-23T13:26:56.620Z,6.97
2023-08-23T13:29:23.856Z,6.40
2023-08-23T13:31:52.069Z,8.52
2023-08-23T13:34:19.391Z,7.68
2023-08-23T13:36:47.028Z,7.57
2023-08-23T13:39:14.359Z,7.45
2023-08-23T13:41:42.257Z,8.07
2023-08-23T13:44:09.677Z,7.03
2023-08-23T13:46:37.454Z,14.00
2023-08-23T13:49:04.747Z,10.85
2023-08-23T13:51:32.346Z,7.30
2023-08-23T13:53:59.914Z,10.50
2023-08-23T13:56:27.581Z,7.65
2023-08-23T13:58:56.874Z,7.03
2023-08-23T14:01:26.245Z,6.90
2023-08-23T14:03:54.269Z,6.38
2023-08-23T14:06:21.855Z,8.35
2023-08-23T14:08:50.944Z,6.45
2023-08-23T14:11:18.589Z,9.68
2023-08-23T14:13:45.950Z,7.22
2023-08-23T14:16:13.682Z,7.13
2023-08-23T14:18:41.984Z,6.68
2023-08-23T14:21:10.265Z,6.50
2023-08-23T14:23:37.776Z,8.32
2023-08-23T14:26:05.590Z,11.40
2023-08-23T14:28:32.890Z,8.50
2023-08-23T14:31:00.955Z,7.40
2023-08-23T14:33:28.328Z,8.07
2023-08-23T14:35:56.226Z,6.38
2023-08-23T14:38:23.547Z,5.88
2023-08-23T14:40:56.782Z,6.05
2023-08-23T14:43:24.530Z,7.03
2023-08-23T14:45:52.101Z,6.30
2023-08-23T14:48:19.691Z,5.40
2023-08-23T14:50:47.407Z,6.10
2023-08-23T14:53:14.806Z,6.65
2023-08-23T14:55:42.624Z,7.00
2023-08-23T14:58:09.833Z,7.65
2023-08-23T15:00:41.027Z,7.13
2023-08-23T15:03:08.604Z,7.18
2023-08-23T15:05:38.058Z,6.72
2023-08-23T15:08:07.236Z,7.55
2023-08-23T15:10:36.406Z,7.55
2023-08-23T15:13:04.279Z,7.55
2023-08-23T15:15:31.814Z,6.88
2023-08-23T15:17:59.162Z,7.47
2023-08-23T15:20:26.731Z,8.05
2023-08-23T15:22:54.027Z,7.90
2023-08-23T15:25:22.979Z,7.22
2023-08-23T15:27:52.298Z,12.40
2023-08-23T15:30:20.082Z,7.70
2023-08-23T15:32:47.517Z,9.63
2023-08-23T15:35:15.134Z,9.80
2023-08-23T15:37:42.399Z,8.77
2023-08-23T15:40:12.434Z,8.27
2023-08-23T15:42:40.290Z,8.45
2023-08-23T15:45:08.300Z,8.57
2023-08-23T15:47:36.527Z,7.80
2023-08-23T15:50:05.392Z,8.80
2023-08-23T15:52:33.018Z,7.95
2023-08-23T15:55:00.805Z,8.80
2023-08-23T15:57:28.054Z,9.05
2023-08-23T15:59:55.786Z,8.32
2023-08-23T16:02:25.624Z,10.18
2023-08-23T16:04:53.626Z,8.80
2023-08-23T16:07:20.836Z,7.63
2023-08-23T16:09:48.430Z,8.55
2023-08-23T16:12:15.624Z,9.20
2023-08-23T16:14:43.131Z,9.05
2023-08-23T16:17:10.394Z,9.52
2023-08-23T16:19:39.015Z,9.15
2023-08-23T16:22:06.649Z,8.85
2023-08-23T16:24:34.657Z,8.90
2023-08-23T16:27:02.165Z,9.63
2023-08-23T16:29:29.708Z,12.07
2023-08-23T16:31:57.006Z,10.57
2023-08-23T16:34:24.603Z,11.25
2023-08-23T16:36:51.927Z,9.85
2023-08-23T16:39:19.485Z,9.40
2023-08-23T16:41:47.074Z,10.93
2023-08-23T16:44:14.821Z,11.30
2023-08-23T16:46:42.740Z,11.57
2023-08-23T16:49:10.381Z,13.50
2023-08-23T16:51:38.005Z,12.88
2023-08-23T16:54:05.590Z,14.02
2023-08-23T16:56:33.006Z,16.52
2023-08-23T16:59:00.617Z,16.27
2023-08-23T17:01:27.985Z,17.10
2023-08-23T17:03:55.942Z,17.25
2023-08-23T17:06:23.232Z,16.10
2023-08-23T17:08:50.815Z,30.85
2023-08-23T17:11:18.132Z,23.35
2023-08-23T17:13:45.717Z,22.00
2023-08-23T17:16:13.100Z,26.70
2023-08-23T17:18:40.752Z,28.70
2023-08-23T17:21:08.031Z,30.65
2023-08-23T17:23:36.742Z,38.83
2023-08-23T17:26:04.103Z,32.15
2023-08-23T17:28:32.135Z,33.53
2023-08-23T17:31:00.799Z,27.08
2023-08-23T17:33:28.391Z,24.23
2023-08-23T17:35:55.581Z,21.52
2023-08-23T17:38:23.211Z,25.23
2023-08-23T17:40:52.401Z,23.67
2023-08-23T17:43:20.119Z,23.83
2023-08-23T17:45:48.103Z,25.15
2023-08-23T17:48:16.469Z,24.63
2023-08-23T17:50:43.826Z,24.98
2023-08-23T17:53:11.448Z,25.42
2023-08-23T17:55:38.887Z,29.38
2023-08-23T17:58:07.103Z,30.15
2023-08-23T18:00:34.746Z,29.42
2023-08-23T18:03:02.563Z,30.13
2023-08-23T18:05:29.979Z,33.80
2023-08-23T18:07:58.269Z,33.38
2023-08-23T18:10:25.489Z,37.17
2023-08-23T18:12:53.776Z,28.58
2023-08-23T18:15:21.499Z,28.23
2023-08-23T18:17:49.420Z,31.15
2023-08-23T18:20:19.015Z,24.30
2023-08-23T18:22:47.226Z,27.60
2023-08-23T18:25:15.191Z,25.58
2023-08-23T18:27:42.888Z,24.80
2023-08-23T18:30:10.516Z,20.73
2023-08-23T18:32:38.180Z,25.52
2023-08-23T18:35:06.055Z,20.85
2023-08-23T18:37:33.670Z,27.45
2023-08-23T18:40:01.136Z,26.48
2023-08-23T18:42:49.254Z,20.13
2023-08-23T18:45:19.633Z,19.23
2023-08-23T18:47:48.372Z,20.13
2023-08-23T18:50:16.480Z,21.20
2023-08-23T18:52:49.562Z,20.67
2023-08-23T18:55:17.102Z,21.53
2023-08-23T18:57:50.496Z,24.13
2023-08-23T19:00:18.493Z,27.10
2023-08-23T19:02:47.243Z,18.30
2023-08-23T19:05:20.684Z,17.17
2023-08-23T19:07:51.343Z,18.25
2023-08-23T19:10:18.861Z,25.50
2023-08-23T19:12:46.675Z,24.48
2023-08-23T19:15:14.241Z,27.40
2023-08-23T19:17:46.261Z,31.85
2023-08-23T19:20:14.306Z,23.35
2023-08-23T19:22:42.139Z,29.70
2023-08-23T19:25:09.567Z,26.15
2023-08-23T19:27:37.125Z,29.65
2023-08-23T19:30:04.927Z,38.13
2023-08-23T19:32:32.721Z,42.55
2023-08-23T19:35:00.156Z,30.92
2023-08-23T19:37:28.799Z,24.60
2023-08-23T19:39:56.023Z,24.23
2023-08-23T19:42:24.458Z,29.58
2023-08-23T19:44:51.981Z,26.13
2023-08-23T19:47:20.616Z,26.23
2023-08-23T19:49:47.985Z,26.33
2023-08-23T19:52:15.457Z,26.90
2023-08-23T19:54:42.815Z,25.75
2023-08-23T19:57:11.724Z,23.27
2023-08-23T19:59:39.048Z,21.67
2023-08-23T20:02:07.492Z,22.80
2023-08-23T20:04:35.004Z,24.08
2023-08-23T20:07:02.798Z,22.85
2023-08-23T20:09:30.044Z,26.58
2023-08-23T20:12:00.145Z,23.80
2023-08-23T20:14:30.880Z,21.25
2023-08-23T20:17:00.950Z,22.70
2023-08-23T20:19:28.373Z,20.67
2023-08-23T20:21:56.011Z,19.33
2023-08-23T20:24:23.622Z,22.42
2023-08-23T20:26:51.425Z,21.60
2023-08-23T20:29:18.672Z,21.65
2023-08-23T20:31:47.290Z,23.27
2023-08-23T20:34:14.763Z,24.02
2023-08-23T20:36:42.496Z,22.55
2023-08-23T20:39:09.862Z,21.15
2023-08-23T20:41:37.713Z,23.55
2023-08-23T20:44:05.274Z,22.00
2023-08-23T20:46:33.283Z,21.25
2023-08-23T20:49:00.636Z,27.92
2023-08-23T20:51:29.457Z,21.73
2023-08-23T20:53:58.219Z,20.88
2023-08-23T20:56:26.062Z,22.30
2023-08-23T20:58:53.362Z,23.50
2023-08-23T21:01:21.734Z,23.13
2023-08-23T21:03:49.335Z,24.42
2023-08-23T21:06:17.108Z,25.02
2023-08-23T21:08:44.530Z,22.20
2023-08-23T21:11:12.577Z,20.25
2023-08-23T21:13:39.868Z,19.42
2023-08-23T21:16:07.676Z,27.52
2023-08-23T21:18:35.208Z,27.60
2023-08-23T21:21:03.463Z,27.52
2023-08-23T21:23:30.978Z,23.70
2023-08-23T21:25:58.613Z,23.25
2023-08-23T21:28:25.866Z,20.85
2023-08-23T21:30:53.493Z,21.08
2023-08-23T21:33:23.393Z,19.20
2023-08-23T21:35:51.416Z,19.80
2023-08-23T21:38:22.779Z,22.83
2023-08-23T21:40:59.509Z,22.50
2023-08-23T21:43:29.929Z,20.08
2023-08-23T21:45:58.437Z,20.38
2023-08-23T21:48:25.825Z,18.95
2023-08-23T21:50:53.596Z,17.25
2023-08-23T21:53:20.914Z,19.08
2023-08-23T21:55:54.993Z,18.58
2023-08-23T21:58:28.751Z,18.77
2023-08-23T22:01:01.228Z,19.40
2023-08-23T22:03:30.018Z,20.00
2023-08-23T22:06:05.071Z,18.48
2023-08-23T22:08:35.404Z,28.33
2023-08-23T22:11:12.154Z,19.38
2023-08-23T22:13:42.673Z,19.45
2023-08-23T22:16:11.549Z,18.45
2023-08-23T22:18:39.252Z,19.42
2023-08-23T22:21:10.360Z,19.40
2023-08-23T22:23:37.919Z,19.80
2023-08-23T22:26:05.979Z,18.80
2023-08-23T22:28:34.330Z,18.13
2023-08-23T22:31:02.372Z,17.98
2023-08-23T22:33:29.795Z,18.05
2023-08-23T22:35:59.073Z,17.92
2023-08-23T22:38:27.482Z,17.38
2023-08-23T22:40:57.006Z,15.25
2023-08-23T22:43:25.496Z,16.38
2023-08-23T22:45:56.246Z,16.90
2023-08-23T22:48:23.485Z,15.93
2023-08-23T22:50:51.964Z,18.95
2023-08-23T22:53:19.710Z,17.27
2023-08-23T22:55:47.359Z,17.65
2023-08-23T22:58:14.701Z,17.58
2023-08-23T23:00:43.760Z,18.48
2023-08-23T23:03:11.940Z,27.00
2023-08-23T23:05:42.782Z,24.23
2023-08-23T23:08:11.285Z,19.73
2023-08-23T23:10:39.288Z,19.00
2023-08-23T23:13:06.635Z,20.17
2023-08-23T23:15:34.344Z,20.52
2023-08-23T23:18:01.595Z,20.58
2023-08-23T23:20:29.572Z,19.33
2023-08-23T23:22:57.140Z,20.50
2023-08-23T23:25:26.804Z,19.80
2023-08-23T23:27:54.145Z,19.63
2023-08-23T23:30:21.711Z,19.52
2023-08-23T23:32:49.357Z,21.10
2023-08-23T23:35:17.205Z,20.17
2023-08-23T23:37:45.349Z,23.23
2023-08-23T23:40:16.948Z,20.98
2023-08-23T23:42:44.481Z,20.90
2023-08-23T23:45:15.459Z,19.52
2023-08-23T23:47:43.748Z,19.27
2023-08-23T23:50:11.427Z,21.67
2023-08-23T23:52:38.717Z,21.05
2023-08-23T23:55:06.940Z,19.77
2023-08-23T23:57:34.593Z,21.33
